createdAt,value
2018-04-30T00:00:34.912Z,99993.80
2018-04-30T00:03:03.090Z,99980.30
2018-04-30T00:05:31.207Z,99983.19
2018-04-30T00:07:59.297Z,99980.84
2018-04-30T00:10:27.399Z,99988.75
2018-04-30T00:12:55.515Z,99992.10
2018-04-30T00:15:23.642Z,99993.13
2018-04-30T00:17:51.733Z,100003.59
2018-04-30T00:20:19.844Z,100003.75
2018-04-30T00:22:47.933Z,100009.75
2018-04-30T00:25:16.156Z,100016.20
2018-04-30T00:27:44.333Z,100019.23
2018-04-30T00:30:12.472Z,100016.14
2018-04-30T00:32:40.582Z,100010.69
2018-04-30T00:35:09.037Z,100011.88
2018-04-30T00:37:37.142Z,100017.47
2018-04-30T00:40:05.231Z,100014.62
2018-04-30T00:42:33.368Z,100024.02
2018-04-30T00:45:01.483Z,100019.05
2018-04-30T00:47:29.609Z,100006.33
2018-04-30T00:49:57.707Z,100014.19
2018-04-30T00:52:25.797Z,100005.58
2018-04-30T00:55:00.247Z,99997.02
2018-04-30T00:57:28.330Z,99997.81
2018-04-30T00:59:56.453Z,99996.65
2018-04-30T01:02:24.613Z,100002.06
2018-04-30T01:04:52.751Z,99993.09
2018-04-30T01:07:20.877Z,99982.98
2018-04-30T01:09:48.955Z,99969.11
2018-04-30T01:12:18.847Z,99956.06
2018-04-30T01:14:46.931Z,99944.74
2018-04-30T01:17:15.041Z,99949.94
2018-04-30T01:19:43.823Z,99935.80
2018-04-30T01:22:11.953Z,99933.09
2018-04-30T01:24:40.047Z,99927.27
2018-04-30T01:27:08.494Z,99918.55
2018-04-30T01:29:42.160Z,99912.61
2018-04-30T01:32:10.239Z,99907.84
2018-04-30T01:34:38.335Z,99907.74
2018-04-30T01:37:07.312Z,99902.72
2018-04-30T01:39:35.403Z,99899.55
2018-04-30T01:42:03.484Z,99899.50
2018-04-30T01:44:31.587Z,99903.66
2018-04-30T01:46:59.689Z,99894.09
2018-04-30T01:49:27.785Z,99890.18
2018-04-30T01:51:55.892Z,99883.39
2018-04-30T01:54:24.027Z,99879.56
2018-04-30T01:56:52.128Z,99875.73
2018-04-30T01:59:20.211Z,99874.66
2018-04-30T02:01:48.695Z,99872.95
2018-04-30T02:04:16.810Z,99876.98
2018-04-30T02:06:44.943Z,99879.14
2018-04-30T02:09:13.063Z,99863.47
2018-04-30T02:11:41.163Z,99859.55
2018-04-30T02:14:09.253Z,99860.91
2018-04-30T02:16:37.784Z,99859.43
2018-04-30T02:19:05.890Z,99853.89
2018-04-30T02:21:33.984Z,99850.45
2018-04-30T02:24:02.070Z,99854.73
2018-04-30T02:26:31.906Z,99853.30
2018-04-30T02:29:01.411Z,99844.52
2018-04-30T02:31:29.528Z,99837.59
2018-04-30T02:33:57.672Z,99841.48
2018-04-30T02:36:25.754Z,99837.70
2018-04-30T02:38:53.848Z,99838.52
2018-04-30T02:41:21.964Z,99840.45
2018-04-30T02:43:50.057Z,99846.53
2018-04-30T02:46:18.142Z,99836.11
2018-04-30T02:48:51.896Z,99841.20
2018-04-30T02:51:19.990Z,99838.98
2018-04-30T02:53:48.085Z,99828.23
2018-04-30T02:56:16.204Z,99818.28
2018-04-30T02:58:44.304Z,99816.19
2018-04-30T03:01:12.393Z,99803.13
2018-04-30T03:03:40.503Z,99791.66
2018-04-30T03:06:08.608Z,99789.83
2018-04-30T03:08:36.727Z,99786.47
2018-04-30T03:11:04.820Z,99787.97
2018-04-30T03:13:32.959Z,99777.48
2018-04-30T03:16:01.033Z,99769.64
2018-04-30T03:18:29.179Z,99777.42
2018-04-30T03:20:57.466Z,99767.06
2018-04-30T03:23:25.536Z,99765.24
2018-04-30T03:25:54.296Z,99762.30
2018-04-30T03:28:22.383Z,99763.58
2018-04-30T03:30:50.473Z,99757.05
2018-04-30T03:33:18.595Z,99756.45
2018-04-30T03:35:46.682Z,99753.35
2018-04-30T03:38:14.810Z,99736.96
2018-04-30T03:40:42.929Z,99736.63
2018-04-30T03:43:11.015Z,99740.49
2018-04-30T03:45:39.151Z,99735.86
2018-04-30T03:48:07.267Z,99733.80
2018-04-30T03:50:35.343Z,99721.32
2018-04-30T03:53:03.415Z,99713.28
2018-04-30T03:55:31.495Z,99711.85
2018-04-30T03:57:59.575Z,99712.21
2018-04-30T04:00:39.525Z,99719.92
2018-04-30T04:03:19.989Z,99723.72
2018-04-30T04:05:59.909Z,99720.02
2018-04-30T04:08:28.029Z,99719.47
2018-04-30T04:10:56.137Z,99716.17
2018-04-30T04:13:24.243Z,99717.13
2018-04-30T04:15:52.345Z,99713.01
2018-04-30T04:18:20.515Z,99727.63
2018-04-30T04:20:48.635Z,99728.91
2018-04-30T04:23:16.791Z,99717.34
2018-04-30T04:25:45.780Z,99719.63
2018-04-30T04:28:13.882Z,99726.68
2018-04-30T04:30:42.712Z,99722.83
2018-04-30T04:33:10.809Z,99726.58
2018-04-30T04:35:38.907Z,99737.33
2018-04-30T04:38:06.996Z,99726.13
2018-04-30T04:40:35.088Z,99727.66
2018-04-30T04:43:03.186Z,99732.88
2018-04-30T04:45:31.268Z,99732.65
2018-04-30T04:47:59.352Z,99733.59
2018-04-30T04:50:33.227Z,99727.35
2018-04-30T04:53:01.336Z,99731.52
2018-04-30T04:55:30.173Z,99736.45
2018-04-30T04:57:58.305Z,99738.59
2018-04-30T05:00:26.384Z,99731.88
2018-04-30T05:02:54.463Z,99742.27
2018-04-30T05:05:23.480Z,99743.62
2018-04-30T05:07:51.574Z,99740.67
2018-04-30T05:10:19.717Z,99746.94
2018-04-30T05:12:47.896Z,99746.52
2018-04-30T05:15:15.974Z,99746.91
2018-04-30T05:17:44.063Z,99744.97
2018-04-30T05:20:12.175Z,99742.50
2018-04-30T05:22:40.268Z,99743.84
2018-04-30T05:25:08.347Z,99743.70
2018-04-30T05:27:36.484Z,99744.84
2018-04-30T05:30:04.574Z,99737.14
2018-04-30T05:32:32.716Z,99731.19
2018-04-30T05:35:00.812Z,99729.80
2018-04-30T05:37:28.896Z,99736.27
2018-04-30T05:39:57.000Z,99737.61
2018-04-30T05:42:25.137Z,99731.13
2018-04-30T05:44:53.224Z,99727.93
2018-04-30T05:47:26.742Z,99731.63
2018-04-30T05:50:00.300Z,99739.50
2018-04-30T05:52:29.023Z,99733.39
2018-04-30T05:54:57.118Z,99735.05
2018-04-30T05:57:25.198Z,99741.58
2018-04-30T05:59:53.290Z,99737.56
2018-04-30T06:02:21.836Z,99736.13
2018-04-30T06:04:49.951Z,99744.58
2018-04-30T06:07:18.395Z,99738.63
2018-04-30T06:09:46.499Z,99746.98
2018-04-30T06:12:14.621Z,99741.95
2018-04-30T06:14:42.869Z,99746.76
2018-04-30T06:17:10.949Z,99745.00
2018-04-30T06:19:39.570Z,99752.08
2018-04-30T06:22:08.262Z,99748.45
2018-04-30T06:24:36.474Z,99750.13
2018-04-30T06:27:04.766Z,99751.69
2018-04-30T06:29:32.842Z,99749.44
2018-04-30T06:32:00.928Z,99745.16
2018-04-30T06:34:29.042Z,99740.68
2018-04-30T06:36:57.543Z,99746.78
2018-04-30T06:52:25.660Z,99731.51
2018-04-30T06:54:53.745Z,99743.72
2018-04-30T06:57:21.843Z,99748.45
2018-04-30T06:59:49.957Z,99753.58
2018-04-30T07:15:18.165Z,99738.16
2018-04-30T07:17:46.265Z,99736.81
2018-04-30T07:20:14.350Z,99739.61
2018-04-30T07:22:42.451Z,99734.48
2018-04-30T07:25:11.357Z,99737.02
2018-04-30T07:27:39.554Z,99734.16
2018-04-30T07:30:07.854Z,99741.83
2018-04-30T07:32:35.984Z,99740.70
2018-04-30T07:35:04.078Z,99739.56
2018-04-30T07:37:32.178Z,99731.57
2018-04-30T07:40:00.580Z,99730.37
2018-04-30T07:42:28.778Z,99714.80
2018-04-30T07:44:56.866Z,99708.23
2018-04-30T07:47:24.974Z,99713.33
2018-04-30T07:49:53.088Z,99709.30
2018-04-30T07:52:21.182Z,99718.88
2018-04-30T07:54:49.268Z,99737.25
2018-04-30T07:57:17.459Z,99745.33
2018-04-30T07:59:45.469Z,99740.56
2018-04-30T08:02:13.557Z,99734.25
2018-04-30T08:04:41.651Z,99720.97
2018-04-30T08:07:09.784Z,99716.14
2018-04-30T08:09:37.878Z,99724.14
2018-04-30T08:12:05.977Z,99726.20
2018-04-30T08:14:34.077Z,99735.05
2018-04-30T08:17:02.170Z,99753.05
2018-04-30T08:19:30.266Z,99756.31
2018-04-30T08:21:58.360Z,99759.18
2018-04-30T08:24:26.948Z,99754.53
2018-04-30T08:26:55.983Z,99753.77
2018-04-30T08:29:24.031Z,99755.31
2018-04-30T08:31:52.149Z,99764.11
2018-04-30T08:47:20.304Z,99758.50
2018-04-30T08:49:48.395Z,99755.48
2018-04-30T08:52:16.495Z,99758.91
2018-04-30T08:54:44.603Z,99754.03
2018-04-30T08:57:12.767Z,99761.02
2018-04-30T08:59:40.870Z,99752.73
2018-04-30T09:02:09.970Z,99753.77
2018-04-30T09:04:38.143Z,99746.62
2018-04-30T09:07:06.277Z,99745.47
2018-04-30T09:09:34.405Z,99742.98
2018-04-30T09:12:02.729Z,99742.91
2018-04-30T09:14:30.794Z,99745.00
2018-04-30T09:16:59.275Z,99743.38
2018-04-30T09:19:27.350Z,99740.24
2018-04-30T09:21:55.461Z,99740.73
2018-04-30T09:24:23.554Z,99739.67
2018-04-30T09:26:51.638Z,99739.08
2018-04-30T09:29:19.739Z,99742.75
2018-04-30T09:31:47.850Z,99745.16
2018-04-30T09:34:16.100Z,99737.27
2018-04-30T09:36:44.169Z,99737.59
2018-04-30T09:39:12.262Z,99733.64
2018-04-30T09:41:40.403Z,99731.06
2018-04-30T09:44:08.503Z,99742.04
2018-04-30T09:46:36.591Z,99747.93
2018-04-30T09:49:04.717Z,99752.52
2018-04-30T09:51:32.811Z,99750.47
2018-04-30T09:54:00.895Z,99747.56
2018-04-30T09:56:34.569Z,99738.38
2018-04-30T09:59:02.659Z,99735.84
2018-04-30T10:01:30.737Z,99733.70
2018-04-30T10:03:58.835Z,99729.27
2018-04-30T10:06:26.923Z,99733.38
2018-04-30T10:08:55.000Z,99734.09
2018-04-30T10:11:23.108Z,99736.59
2018-04-30T10:13:51.192Z,99737.20
2018-04-30T10:16:25.037Z,99730.25
2018-04-30T10:18:58.585Z,99730.36
2018-04-30T10:21:26.675Z,99730.25
2018-04-30T10:23:54.878Z,99734.02
2018-04-30T10:26:22.898Z,99733.73
2018-04-30T10:28:50.987Z,99733.80
2018-04-30T10:31:19.085Z,99739.38
2018-04-30T10:33:47.167Z,99737.07
2018-04-30T10:36:15.527Z,99732.34
2018-04-30T10:38:43.639Z,99739.44
2018-04-30T10:41:12.207Z,99739.05
2018-04-30T10:43:40.298Z,99738.86
2018-04-30T10:46:08.522Z,99744.09
2018-04-30T10:48:37.174Z,99734.39
2018-04-30T10:51:05.301Z,99732.53
2018-04-30T10:53:33.378Z,99728.19
2018-04-30T10:56:01.471Z,99731.83
2018-04-30T10:58:29.555Z,99723.18
2018-04-30T11:00:57.696Z,99732.79
2018-04-30T11:03:25.784Z,99727.00
2018-04-30T11:05:54.240Z,99732.72
2018-04-30T11:08:22.329Z,99737.34
2018-04-30T11:10:50.412Z,99733.05
2018-04-30T11:13:18.497Z,99735.16
2018-04-30T11:15:46.623Z,99729.23
2018-04-30T11:18:14.709Z,99730.78
2018-04-30T11:20:42.803Z,99730.58
2018-04-30T11:23:10.903Z,99731.59
2018-04-30T11:25:38.992Z,99732.58
2018-04-30T11:28:07.990Z,99737.59
2018-04-30T11:30:36.107Z,99736.74
2018-04-30T11:33:04.192Z,99731.56
2018-04-30T11:35:32.617Z,99732.33
2018-04-30T11:38:00.729Z,99741.02
2018-04-30T11:40:28.812Z,99743.80
2018-04-30T11:42:57.208Z,99739.78
2018-04-30T11:45:25.332Z,99732.27
2018-04-30T11:47:53.427Z,99736.88
2018-04-30T11:50:21.531Z,99731.91
2018-04-30T11:52:49.610Z,99742.42
2018-04-30T11:55:17.756Z,99736.95
2018-04-30T11:57:46.146Z,99741.08
2018-04-30T12:00:14.552Z,99743.20
2018-04-30T12:02:42.635Z,99742.88
2018-04-30T12:05:10.737Z,99733.14
2018-04-30T12:07:38.833Z,99732.13
2018-04-30T12:10:06.924Z,99737.52
2018-04-30T12:12:35.035Z,99737.77
2018-04-30T12:15:03.165Z,99736.48
2018-04-30T12:17:37.501Z,99731.83
2018-04-30T12:20:06.392Z,99724.46
2018-04-30T12:22:35.781Z,99722.23
2018-04-30T12:25:03.878Z,99718.95
2018-04-30T12:27:31.972Z,99713.52
2018-04-30T12:30:01.006Z,99718.72
2018-04-30T12:32:29.109Z,99717.80
2018-04-30T12:34:57.190Z,99724.81
2018-04-30T12:37:25.279Z,99727.71
2018-04-30T12:39:53.381Z,99715.40
2018-04-30T12:42:21.473Z,99717.72
2018-04-30T12:44:49.557Z,99712.36
2018-04-30T12:47:19.383Z,99709.25
2018-04-30T12:49:47.508Z,99709.91
2018-04-30T12:52:15.549Z,99714.32
2018-04-30T12:54:44.515Z,99711.06
2018-04-30T12:57:12.646Z,99705.79
2018-04-30T12:59:41.058Z,99701.27
2018-04-30T13:02:09.138Z,99699.58
2018-04-30T13:04:37.588Z,99692.27
2018-04-30T13:07:05.726Z,99697.72
2018-04-30T13:09:33.763Z,99694.94
2018-04-30T13:12:02.084Z,99685.83
2018-04-30T13:14:30.173Z,99708.11
2018-04-30T13:16:58.266Z,99714.41
2018-04-30T13:19:26.367Z,99736.17
2018-04-30T13:21:54.435Z,99736.27
2018-04-30T13:24:22.508Z,99729.11
2018-04-30T13:26:50.907Z,99736.89
2018-04-30T13:29:19.011Z,99741.94
2018-04-30T13:31:47.151Z,99741.91
2018-04-30T13:34:15.864Z,99743.97
2018-04-30T13:36:43.936Z,99744.51
2018-04-30T13:39:12.051Z,99744.13
2018-04-30T13:41:41.066Z,99739.05
2018-04-30T13:44:09.148Z,99748.20
2018-04-30T13:46:37.535Z,99750.88
2018-04-30T13:49:05.684Z,99751.30
2018-04-30T13:51:33.995Z,99750.62
2018-04-30T13:54:07.657Z,99758.11
2018-04-30T13:56:35.765Z,99776.34
2018-04-30T13:59:03.895Z,99782.70
2018-04-30T14:01:31.951Z,99772.53
2018-04-30T14:06:35.933Z,99794.03
2018-04-30T14:09:04.530Z,99791.36
2018-04-30T14:11:32.603Z,99784.56
2018-04-30T14:14:00.757Z,99782.84
2018-04-30T14:16:29.300Z,99786.73
2018-04-30T14:18:57.408Z,99796.81
2018-04-30T14:21:26.295Z,99798.55
2018-04-30T14:23:56.519Z,99806.12
2018-04-30T14:26:24.693Z,99797.53
2018-04-30T14:28:53.323Z,99793.06
2018-04-30T14:31:21.447Z,99799.38
2018-04-30T14:33:49.515Z,99796.73
2018-04-30T14:36:18.415Z,99790.16
2018-04-30T14:38:46.494Z,99800.53
2018-04-30T14:41:14.597Z,99791.64
2018-04-30T14:43:42.678Z,99802.20
2018-04-30T14:46:10.747Z,99796.45
2018-04-30T14:48:38.847Z,99801.81
2018-04-30T14:51:06.947Z,99804.33
2018-04-30T14:53:35.050Z,99808.41
2018-04-30T14:56:03.144Z,99805.43
2018-04-30T14:58:32.104Z,99799.80
2018-04-30T15:01:05.128Z,99805.43
2018-04-30T15:03:33.215Z,99795.78
2018-04-30T15:06:01.287Z,99803.83
2018-04-30T15:08:29.726Z,99799.09
2018-04-30T15:10:57.800Z,99803.53
2018-04-30T15:13:25.878Z,99811.30
2018-04-30T15:15:54.986Z,99806.67
2018-04-30T15:18:23.115Z,99800.76
2018-04-30T15:20:51.187Z,99800.23
2018-04-30T15:23:19.287Z,99808.10
2018-04-30T15:25:47.367Z,99805.06
2018-04-30T15:28:15.490Z,99803.34
2018-04-30T15:30:49.691Z,99800.23
2018-04-30T15:33:17.786Z,99806.66
2018-04-30T15:35:45.950Z,99801.93
2018-04-30T15:38:13.977Z,99802.95
2018-04-30T15:40:42.069Z,99796.57
2018-04-30T15:43:10.233Z,99806.48
2018-04-30T15:45:38.411Z,99810.98
2018-04-30T15:48:06.495Z,99816.90
2018-04-30T15:50:35.307Z,99822.97
2018-04-30T15:53:03.395Z,99810.52
2018-04-30T15:55:31.474Z,99808.38
2018-04-30T15:57:59.911Z,99808.39
2018-04-30T16:00:28.055Z,99804.61
2018-04-30T16:02:56.124Z,99801.10
2018-04-30T16:05:25.045Z,99801.95
2018-04-30T16:07:59.299Z,99802.63
2018-04-30T16:10:27.385Z,99801.53
2018-04-30T16:12:55.787Z,99798.09
2018-04-30T16:15:24.578Z,99799.02
2018-04-30T16:20:23.737Z,99796.05
2018-04-30T16:22:51.745Z,99786.87
2018-04-30T16:25:20.557Z,99788.66
2018-04-30T16:27:48.630Z,99780.98
2018-04-30T16:30:16.776Z,99783.89
2018-04-30T16:32:45.352Z,99780.24
2018-04-30T16:35:13.429Z,99789.98
2018-04-30T16:37:41.538Z,99793.05
2018-04-30T16:42:57.947Z,99800.98
2018-04-30T16:45:26.058Z,99788.02
2018-04-30T16:47:54.139Z,99791.84
2018-04-30T16:50:22.240Z,99791.30
2018-04-30T16:52:50.340Z,99788.84
2018-04-30T16:55:18.424Z,99785.88
2018-04-30T16:57:51.970Z,99792.41
2018-04-30T17:00:21.781Z,99787.05
2018-04-30T17:02:51.381Z,99792.21
2018-04-30T17:05:19.456Z,99799.33
2018-04-30T17:20:47.578Z,99790.70
2018-04-30T17:23:15.678Z,99784.05
2018-04-30T17:25:43.758Z,99797.13
2018-04-30T17:28:11.856Z,99793.41
2018-04-30T17:30:39.972Z,99794.07
2018-04-30T17:33:08.079Z,99793.16
2018-04-30T17:35:36.168Z,99797.16
2018-04-30T17:38:04.277Z,99790.06
2018-04-30T17:40:32.372Z,99782.45
2018-04-30T17:43:00.453Z,99779.59
2018-04-30T17:45:29.338Z,99780.02
2018-04-30T17:47:57.439Z,99788.95
2018-04-30T17:50:26.178Z,99779.13
2018-04-30T17:52:54.261Z,99778.65
2018-04-30T17:55:22.370Z,99784.37
2018-04-30T17:57:50.443Z,99791.16
2018-04-30T18:00:18.510Z,99787.67
2018-04-30T18:02:46.603Z,99779.30
2018-04-30T18:05:14.678Z,99783.64
2018-04-30T18:07:42.768Z,99783.88
2018-04-30T18:10:11.142Z,99779.14
2018-04-30T18:12:39.310Z,99776.03
2018-04-30T18:15:07.336Z,99772.59
2018-04-30T18:17:35.590Z,99771.94
2018-04-30T18:20:03.666Z,99769.27
2018-04-30T18:22:31.723Z,99773.67
2018-04-30T18:24:59.808Z,99777.86
2018-04-30T18:27:27.891Z,99775.77
2018-04-30T18:29:56.152Z,99771.88
2018-04-30T18:32:24.254Z,99777.14
2018-04-30T18:34:52.323Z,99772.37
2018-04-30T18:37:20.425Z,99770.11
2018-04-30T18:39:48.799Z,99774.11
2018-04-30T18:42:17.003Z,99774.47
2018-04-30T18:44:45.068Z,99779.30
2018-04-30T18:47:13.143Z,99775.02
2018-04-30T18:49:41.247Z,99770.05
2018-04-30T18:52:09.348Z,99784.96
2018-04-30T18:54:37.584Z,99785.56
2018-04-30T18:57:05.680Z,99783.04
2018-04-30T18:59:34.936Z,99777.14
2018-04-30T19:02:02.995Z,99782.86
2018-04-30T19:04:31.084Z,99782.42
2018-04-30T19:06:59.183Z,99783.52
2018-04-30T19:09:28.644Z,99779.11
2018-04-30T19:11:56.718Z,99776.62
2018-04-30T19:14:24.869Z,99777.20
2018-04-30T19:16:52.918Z,99776.11
2018-04-30T19:29:06.023Z,99772.10
2018-04-30T19:31:34.164Z,99772.10
2018-04-30T19:34:02.243Z,99767.25
2018-04-30T19:36:30.359Z,99773.60
2018-04-30T19:38:58.453Z,99771.47
2018-04-30T19:41:26.547Z,99768.56
2018-04-30T19:43:54.667Z,99778.11
2018-04-30T19:46:22.768Z,99782.58
2018-04-30T19:48:50.845Z,99777.25
2018-04-30T19:51:19.019Z,99778.13
2018-04-30T19:53:47.134Z,99783.69
2018-04-30T19:56:15.267Z,99779.25
2018-04-30T19:58:43.392Z,99789.44
2018-04-30T20:01:11.422Z,99788.95
2018-04-30T20:03:39.507Z,99787.17
2018-04-30T20:06:07.627Z,99787.02
2018-04-30T20:08:35.730Z,99789.20
2018-04-30T20:11:04.464Z,99789.47
2018-04-30T20:13:32.605Z,99786.52
2018-04-30T20:16:00.628Z,99792.16
2018-04-30T20:18:28.725Z,99793.38
2018-04-30T20:20:56.822Z,99793.47
2018-04-30T20:23:25.010Z,99784.09
2018-04-30T20:25:53.089Z,99786.78
2018-04-30T20:28:21.160Z,99791.80
2018-04-30T20:30:49.250Z,99780.71
2018-04-30T20:33:17.338Z,99788.30
2018-04-30T20:35:45.411Z,99790.39
2018-04-30T20:38:13.845Z,99791.80
2018-04-30T20:40:41.948Z,99793.81
2018-04-30T20:43:10.016Z,99790.97
2018-04-30T20:45:38.910Z,99788.81
2018-04-30T20:48:07.635Z,99796.27
2018-04-30T20:50:35.721Z,99794.38
2018-04-30T20:53:04.830Z,99792.12
2018-04-30T20:55:33.362Z,99797.83
2018-04-30T20:58:01.453Z,99794.50
2018-04-30T21:00:29.600Z,99795.05
2018-04-30T21:02:58.700Z,99799.31
2018-04-30T21:05:26.775Z,99796.84
2018-04-30T21:07:54.885Z,99795.16
2018-04-30T21:10:23.513Z,99799.34
2018-04-30T21:12:51.703Z,99811.70
2018-04-30T21:15:19.695Z,99809.95
2018-04-30T21:17:47.788Z,99817.92
2018-04-30T21:20:15.887Z,99823.02
2018-04-30T21:22:43.973Z,99809.97
2018-04-30T21:25:12.061Z,99823.30
2018-04-30T21:27:40.151Z,99817.93
2018-04-30T21:30:08.259Z,99831.84
2018-04-30T21:32:36.349Z,99838.20
2018-04-30T21:48:04.436Z,99845.34
2018-04-30T21:50:32.534Z,99856.45
2018-04-30T21:53:00.639Z,99854.52
2018-04-30T21:55:29.392Z,99858.00
2018-04-30T21:57:57.841Z,99861.50
2018-04-30T22:00:27.778Z,99861.13
2018-04-30T22:02:55.873Z,99860.79
2018-04-30T22:05:24.212Z,99862.83
2018-04-30T22:07:52.282Z,99868.25
2018-04-30T22:10:20.374Z,99866.27
2018-04-30T22:12:48.449Z,99869.59
2018-04-30T22:15:16.523Z,99861.86
2018-04-30T22:17:44.881Z,99880.41
2018-04-30T22:20:12.961Z,99890.02
2018-04-30T22:22:41.027Z,99882.31
2018-04-30T22:25:09.119Z,99897.78
2018-04-30T22:27:37.199Z,99897.48
2018-04-30T22:43:05.407Z,99913.59
2018-04-30T22:45:33.499Z,99908.96
2018-04-30T22:48:01.571Z,99930.10
2018-04-30T22:50:29.669Z,99924.27
2018-04-30T22:52:57.752Z,99933.58
2018-04-30T22:55:25.854Z,99943.44
2018-04-30T22:57:53.946Z,99946.23
2018-04-30T23:00:22.881Z,99946.50
2018-04-30T23:02:50.960Z,99938.29
2018-04-30T23:05:19.147Z,99952.80
2018-04-30T23:07:47.947Z,99951.84
2018-04-30T23:10:17.090Z,99956.88
2018-04-30T23:12:45.149Z,99962.64
2018-04-30T23:15:13.218Z,99968.90
2018-04-30T23:17:42.026Z,99968.73
2018-04-30T23:20:10.099Z,99953.30
2018-04-30T23:22:38.214Z,99963.84
2018-04-30T23:25:06.288Z,99947.00
2018-04-30T23:27:34.356Z,99983.55
2018-04-30T23:30:02.427Z,99965.12
2018-04-30T23:32:30.522Z,99970.16
2018-04-30T23:34:58.591Z,99971.84
2018-04-30T23:37:27.583Z,99988.89
2018-04-30T23:39:55.678Z,99994.55
2018-04-30T23:42:23.743Z,99990.50
2018-04-30T23:44:51.827Z,100000.38
2018-04-30T23:47:19.955Z,100010.34
2018-04-30T23:49:48.035Z,100004.13
2018-04-30T23:52:16.151Z,100015.67
2018-04-30T23:54:44.235Z,100016.98
2018-04-30T23:57:12.307Z,100024.91
2018-04-30T23:59:40.411Z,100030.52
